Ripley, Michigan
Current Conditions -  °F | °C
As of 2:53 PM on Saturday 25 Oct 2014 (Local Time) from KCMX Reporting Station
Clear Clear  
Wind Chill: 53°   Ceiling: Unl
Heat Index: 53°   Visibility: 10mi
Dew Point: 34°   Wind: 28mph
Humidity: 48%   Direction: 270°W
Pressure: 29.73"   Gusts: 43mph
Location:  47.1715°N, 88.5503°W
Report Text: KCMX 251853Z AUTO 27024G37KT 10SM CLR 12/01 A2973 RMK AO2 PK WND 26042/1801 SLP070 T01170011
Loading
Personal Weather Stations






























Interactive Weather Map
Tropical Storm Tracking
New forecast layout! Learn more

10-Day Weather Forecast

Advertisements
Track Severe Weather on mobile